sensor_id;sensor_type;location;lat;lon;timestamp;P1;durP1;ratioP1;P2;durP2;ratioP2
4194;SDS011;2111;48.050;11.626;2022-07-30T00:01:15;2.95;;;0.63;;
4194;SDS011;2111;48.050;11.626;2022-07-30T00:03:42;0.82;;;0.40;;
4194;SDS011;2111;48.050;11.626;2022-07-30T00:06:09;0.60;;;0.52;;
4194;SDS011;2111;48.050;11.626;2022-07-30T00:08:36;2.38;;;0.50;;
4194;SDS011;2111;48.050;11.626;2022-07-30T00:11:03;1.10;;;0.50;;
4194;SDS011;2111;48.050;11.626;2022-07-30T00:13:30;1.65;;;0.60;;
4194;SDS011;2111;48.050;11.626;2022-07-30T00:15:57;1.48;;;0.30;;
4194;SDS011;2111;48.050;11.626;2022-07-30T00:18:23;0.40;;;0.40;;
4194;SDS011;2111;48.050;11.626;2022-07-30T00:20:51;0.93;;;0.60;;
4194;SDS011;2111;48.050;11.626;2022-07-30T00:23:18;0.70;;;0.70;;
4194;SDS011;2111;48.050;11.626;2022-07-30T00:25:44;0.70;;;0.50;;
4194;SDS011;2111;48.050;11.626;2022-07-30T00:28:11;0.40;;;0.40;;
4194;SDS011;2111;48.050;11.626;2022-07-30T00:30:38;0.82;;;0.57;;
4194;SDS011;2111;48.050;11.626;2022-07-30T00:33:05;1.27;;;0.60;;
4194;SDS011;2111;48.050;11.626;2022-07-30T00:35:33;0.47;;;0.47;;
4194;SDS011;2111;48.050;11.626;2022-07-30T00:38:00;0.47;;;0.40;;
4194;SDS011;2111;48.050;11.626;2022-07-30T00:40:27;0.40;;;0.40;;
4194;SDS011;2111;48.050;11.626;2022-07-30T00:42:54;3.33;;;0.40;;
4194;SDS011;2111;48.050;11.626;2022-07-30T00:45:20;2.47;;;0.80;;
4194;SDS011;2111;48.050;11.626;2022-07-30T00:47:48;0.47;;;0.47;;
4194;SDS011;2111;48.050;11.626;2022-07-30T00:50:15;0.80;;;0.60;;
4194;SDS011;2111;48.050;11.626;2022-07-30T00:52:42;0.50;;;0.50;;
4194;SDS011;2111;48.050;11.626;2022-07-30T00:55:10;0.57;;;0.55;;
4194;SDS011;2111;48.050;11.626;2022-07-30T00:57:40;0.50;;;0.50;;
4194;SDS011;2111;48.050;11.626;2022-07-30T01:00:08;1.02;;;0.52;;
4194;SDS011;2111;48.050;11.626;2022-07-30T01:02:38;1.00;;;0.57;;
4194;SDS011;2111;48.050;11.626;2022-07-30T01:05:06;1.05;;;0.60;;
4194;SDS011;2111;48.050;11.626;2022-07-30T01:07:33;2.20;;;0.60;;
4194;SDS011;2111;48.050;11.626;2022-07-30T01:10:00;0.50;;;0.50;;
4194;SDS011;2111;48.050;11.626;2022-07-30T01:12:27;1.55;;;0.60;;
4194;SDS011;2111;48.050;11.626;2022-07-30T01:14:55;1.20;;;0.70;;
4194;SDS011;2111;48.050;11.626;2022-07-30T01:17:23;0.93;;;0.70;;
4194;SDS011;2111;48.050;11.626;2022-07-30T01:19:51;1.05;;;0.70;;
4194;SDS011;2111;48.050;11.626;2022-07-30T01:22:26;2.35;;;0.60;;
4194;SDS011;2111;48.050;11.626;2022-07-30T01:25:07;0.60;;;0.60;;
4194;SDS011;2111;48.050;11.626;2022-07-30T01:27:37;0.88;;;0.50;;
4194;SDS011;2111;48.050;11.626;2022-07-30T01:30:06;0.60;;;0.60;;
4194;SDS011;2111;48.050;11.626;2022-07-30T01:32:34;0.60;;;0.60;;
4194;SDS011;2111;48.050;11.626;2022-07-30T01:35:02;3.13;;;1.10;;
4194;SDS011;2111;48.050;11.626;2022-07-30T01:37:30;0.63;;;0.52;;
4194;SDS011;2111;48.050;11.626;2022-07-30T01:39:58;1.92;;;0.60;;
4194;SDS011;2111;48.050;11.626;2022-07-30T01:42:25;0.57;;;0.57;;
4194;SDS011;2111;48.050;11.626;2022-07-30T01:44:54;0.50;;;0.50;;
4194;SDS011;2111;48.050;11.626;2022-07-30T01:47:23;1.35;;;0.60;;
4194;SDS011;2111;48.050;11.626;2022-07-30T01:49:52;0.65;;;0.55;;
4194;SDS011;2111;48.050;11.626;2022-07-30T01:52:20;1.65;;;0.60;;
4194;SDS011;2111;48.050;11.626;2022-07-30T01:54:50;0.40;;;0.40;;
4194;SDS011;2111;48.050;11.626;2022-07-30T01:57:19;1.50;;;0.80;;
4194;SDS011;2111;48.050;11.626;2022-07-30T01:59:48;1.00;;;0.70;;
4194;SDS011;2111;48.050;11.626;2022-07-30T02:02:15;0.43;;;0.43;;
4194;SDS011;2111;48.050;11.626;2022-07-30T02:04:43;0.52;;;0.52;;
4194;SDS011;2111;48.050;11.626;2022-07-30T02:09:40;1.00;;;0.70;;
4194;SDS011;2111;48.050;11.626;2022-07-30T02:12:14;1.77;;;0.63;;
4194;SDS011;2111;48.050;11.626;2022-07-30T02:17:45;3.13;;;0.73;;
4194;SDS011;2111;48.050;11.626;2022-07-30T02:20:27;0.93;;;0.60;;
4194;SDS011;2111;48.050;11.626;2022-07-30T02:23:01;1.83;;;0.45;;
4194;SDS011;2111;48.050;11.626;2022-07-30T02:25:35;0.50;;;0.50;;
4194;SDS011;2111;48.050;11.626;2022-07-30T02:28:08;0.88;;;0.70;;
4194;SDS011;2111;48.050;11.626;2022-07-30T02:30:39;1.38;;;0.75;;
4194;SDS011;2111;48.050;11.626;2022-07-30T02:33:07;0.70;;;0.70;;
4194;SDS011;2111;48.050;11.626;2022-07-30T02:35:35;0.55;;;0.55;;
4194;SDS011;2111;48.050;11.626;2022-07-30T02:38:03;0.93;;;0.60;;
4194;SDS011;2111;48.050;11.626;2022-07-30T02:40:31;3.25;;;0.90;;
4194;SDS011;2111;48.050;11.626;2022-07-30T02:42:58;0.60;;;0.60;;
4194;SDS011;2111;48.050;11.626;2022-07-30T02:45:26;0.40;;;0.40;;
4194;SDS011;2111;48.050;11.626;2022-07-30T02:47:55;0.60;;;0.60;;
4194;SDS011;2111;48.050;11.626;2022-07-30T02:50:23;2.40;;;0.75;;
4194;SDS011;2111;48.050;11.626;2022-07-30T02:52:51;4.15;;;0.75;;
4194;SDS011;2111;48.050;11.626;2022-07-30T02:55:19;2.03;;;0.70;;
4194;SDS011;2111;48.050;11.626;2022-07-30T02:57:48;0.88;;;0.88;;
4194;SDS011;2111;48.050;11.626;2022-07-30T03:00:17;2.00;;;0.88;;
4194;SDS011;2111;48.050;11.626;2022-07-30T03:02:45;0.80;;;0.80;;
4194;SDS011;2111;48.050;11.626;2022-07-30T03:05:14;1.10;;;1.00;;
4194;SDS011;2111;48.050;11.626;2022-07-30T03:07:41;0.82;;;0.70;;
4194;SDS011;2111;48.050;11.626;2022-07-30T03:10:09;2.78;;;0.77;;
4194;SDS011;2111;48.050;11.626;2022-07-30T03:12:37;2.90;;;0.90;;
4194;SDS011;2111;48.050;11.626;2022-07-30T03:15:07;0.90;;;0.80;;
4194;SDS011;2111;48.050;11.626;2022-07-30T03:17:36;3.20;;;0.88;;
4194;SDS011;2111;48.050;11.626;2022-07-30T03:20:10;1.02;;;0.93;;
4194;SDS011;2111;48.050;11.626;2022-07-30T03:22:41;2.47;;;0.90;;
4194;SDS011;2111;48.050;11.626;2022-07-30T03:25:09;1.58;;;1.10;;
4194;SDS011;2111;48.050;11.626;2022-07-30T03:27:40;2.05;;;0.90;;
4194;SDS011;2111;48.050;11.626;2022-07-30T03:30:10;1.10;;;0.85;;
4194;SDS011;2111;48.050;11.626;2022-07-30T03:32:37;0.75;;;0.75;;
4194;SDS011;2111;48.050;11.626;2022-07-30T03:35:08;2.15;;;1.00;;
4194;SDS011;2111;48.050;11.626;2022-07-30T03:37:42;1.15;;;1.02;;
4194;SDS011;2111;48.050;11.626;2022-07-30T03:40:10;0.95;;;0.85;;
4194;SDS011;2111;48.050;11.626;2022-07-30T03:42:38;1.95;;;1.02;;
4194;SDS011;2111;48.050;11.626;2022-07-30T03:45:05;2.40;;;1.00;;
4194;SDS011;2111;48.050;11.626;2022-07-30T03:47:34;1.55;;;0.82;;
4194;SDS011;2111;48.050;11.626;2022-07-30T03:50:02;1.02;;;1.02;;
4194;SDS011;2111;48.050;11.626;2022-07-30T03:52:31;2.42;;;1.27;;
4194;SDS011;2111;48.050;11.626;2022-07-30T03:55:01;0.98;;;0.88;;
4194;SDS011;2111;48.050;11.626;2022-07-30T03:57:28;1.25;;;1.05;;
4194;SDS011;2111;48.050;11.626;2022-07-30T03:59:55;3.00;;;1.00;;
4194;SDS011;2111;48.050;11.626;2022-07-30T04:02:22;0.80;;;0.80;;
4194;SDS011;2111;48.050;11.626;2022-07-30T04:04:49;1.20;;;1.10;;
4194;SDS011;2111;48.050;11.626;2022-07-30T04:07:16;2.40;;;0.90;;
4194;SDS011;2111;48.050;11.626;2022-07-30T04:09:43;1.00;;;1.00;;
4194;SDS011;2111;48.050;11.626;2022-07-30T04:12:10;1.30;;;1.10;;
4194;SDS011;2111;48.050;11.626;2022-07-30T04:14:40;1.50;;;0.93;;
4194;SDS011;2111;48.050;11.626;2022-07-30T04:17:11;0.88;;;0.85;;
4194;SDS011;2111;48.050;11.626;2022-07-30T04:19:52;1.02;;;0.90;;
4194;SDS011;2111;48.050;11.626;2022-07-30T04:22:21;3.63;;;1.20;;
4194;SDS011;2111;48.050;11.626;2022-07-30T04:24:52;0.88;;;0.88;;
4194;SDS011;2111;48.050;11.626;2022-07-30T04:27:19;1.50;;;1.02;;
4194;SDS011;2111;48.050;11.626;2022-07-30T04:29:47;1.20;;;1.10;;
4194;SDS011;2111;48.050;11.626;2022-07-30T04:32:14;1.30;;;1.17;;
4194;SDS011;2111;48.050;11.626;2022-07-30T04:34:47;1.08;;;1.02;;
4194;SDS011;2111;48.050;11.626;2022-07-30T04:37:15;1.40;;;1.30;;
4194;SDS011;2111;48.050;11.626;2022-07-30T04:39:43;1.30;;;1.20;;
4194;SDS011;2111;48.050;11.626;2022-07-30T04:42:10;1.65;;;1.20;;
4194;SDS011;2111;48.050;11.626;2022-07-30T04:44:38;3.22;;;1.00;;
4194;SDS011;2111;48.050;11.626;2022-07-30T04:47:05;1.02;;;0.95;;
4194;SDS011;2111;48.050;11.626;2022-07-30T04:49:32;2.72;;;1.15;;
4194;SDS011;2111;48.050;11.626;2022-07-30T04:51:59;1.20;;;1.00;;
4194;SDS011;2111;48.050;11.626;2022-07-30T04:54:29;1.45;;;1.35;;
4194;SDS011;2111;48.050;11.626;2022-07-30T04:57:00;2.67;;;1.17;;
4194;SDS011;2111;48.050;11.626;2022-07-30T04:59:27;1.23;;;1.10;;
4194;SDS011;2111;48.050;11.626;2022-07-30T05:01:56;0.90;;;0.80;;
4194;SDS011;2111;48.050;11.626;2022-07-30T05:04:24;1.63;;;1.02;;
4194;SDS011;2111;48.050;11.626;2022-07-30T05:06:52;1.52;;;1.23;;
4194;SDS011;2111;48.050;11.626;2022-07-30T05:09:19;0.93;;;0.93;;
4194;SDS011;2111;48.050;11.626;2022-07-30T05:11:53;2.78;;;1.27;;
4194;SDS011;2111;48.050;11.626;2022-07-30T05:14:21;1.83;;;1.25;;
4194;SDS011;2111;48.050;11.626;2022-07-30T05:16:49;2.00;;;0.90;;
4194;SDS011;2111;48.050;11.626;2022-07-30T05:19:17;2.35;;;1.10;;
4194;SDS011;2111;48.050;11.626;2022-07-30T05:21:44;1.13;;;1.13;;
4194;SDS011;2111;48.050;11.626;2022-07-30T05:24:11;1.33;;;1.23;;
4194;SDS011;2111;48.050;11.626;2022-07-30T05:26:38;2.67;;;1.20;;
4194;SDS011;2111;48.050;11.626;2022-07-30T05:29:05;1.75;;;1.20;;
4194;SDS011;2111;48.050;11.626;2022-07-30T05:31:33;1.13;;;1.10;;
4194;SDS011;2111;48.050;11.626;2022-07-30T05:34:03;1.40;;;1.05;;
4194;SDS011;2111;48.050;11.626;2022-07-30T05:36:30;1.20;;;1.10;;
4194;SDS011;2111;48.050;11.626;2022-07-30T05:38:57;2.17;;;1.08;;
4194;SDS011;2111;48.050;11.626;2022-07-30T05:41:23;2.78;;;1.35;;
4194;SDS011;2111;48.050;11.626;2022-07-30T05:43:58;1.30;;;1.08;;
4194;SDS011;2111;48.050;11.626;2022-07-30T05:46:25;1.40;;;1.30;;
4194;SDS011;2111;48.050;11.626;2022-07-30T05:48:52;1.65;;;1.02;;
4194;SDS011;2111;48.050;11.626;2022-07-30T05:51:19;1.30;;;1.20;;
4194;SDS011;2111;48.050;11.626;2022-07-30T05:53:47;1.00;;;1.00;;
4194;SDS011;2111;48.050;11.626;2022-07-30T05:56:14;1.10;;;1.10;;
4194;SDS011;2111;48.050;11.626;2022-07-30T05:58:41;2.42;;;1.17;;
4194;SDS011;2111;48.050;11.626;2022-07-30T06:01:08;2.63;;;1.33;;
4194;SDS011;2111;48.050;11.626;2022-07-30T06:03:37;4.18;;;1.20;;
4194;SDS011;2111;48.050;11.626;2022-07-30T06:06:04;2.47;;;1.40;;
4194;SDS011;2111;48.050;11.626;2022-07-30T06:08:33;2.25;;;1.30;;
4194;SDS011;2111;48.050;11.626;2022-07-30T06:11:03;3.33;;;1.15;;
4194;SDS011;2111;48.050;11.626;2022-07-30T06:13:34;1.83;;;1.45;;
4194;SDS011;2111;48.050;11.626;2022-07-30T06:16:01;1.38;;;1.23;;
4194;SDS011;2111;48.050;11.626;2022-07-30T06:18:28;1.77;;;1.30;;
4194;SDS011;2111;48.050;11.626;2022-07-30T06:20:55;1.52;;;1.38;;
4194;SDS011;2111;48.050;11.626;2022-07-30T06:23:23;3.67;;;1.80;;
4194;SDS011;2111;48.050;11.626;2022-07-30T06:25:49;1.40;;;1.30;;
4194;SDS011;2111;48.050;11.626;2022-07-30T06:28:16;3.15;;;1.50;;
4194;SDS011;2111;48.050;11.626;2022-07-30T06:31:04;1.73;;;1.30;;
4194;SDS011;2111;48.050;11.626;2022-07-30T06:33:31;1.85;;;1.27;;
4194;SDS011;2111;48.050;11.626;2022-07-30T06:35:59;1.25;;;1.15;;
4194;SDS011;2111;48.050;11.626;2022-07-30T06:38:26;4.38;;;1.75;;
4194;SDS011;2111;48.050;11.626;2022-07-30T06:40:53;1.65;;;1.45;;
4194;SDS011;2111;48.050;11.626;2022-07-30T06:43:27;2.00;;;1.20;;
4194;SDS011;2111;48.050;11.626;2022-07-30T06:45:54;2.00;;;1.50;;
4194;SDS011;2111;48.050;11.626;2022-07-30T06:48:21;3.65;;;1.30;;
4194;SDS011;2111;48.050;11.626;2022-07-30T06:50:48;1.85;;;1.23;;
4194;SDS011;2111;48.050;11.626;2022-07-30T06:53:15;1.20;;;1.10;;
4194;SDS011;2111;48.050;11.626;2022-07-30T06:55:42;1.90;;;1.42;;
4194;SDS011;2111;48.050;11.626;2022-07-30T06:58:09;4.90;;;1.40;;
4194;SDS011;2111;48.050;11.626;2022-07-30T07:00:36;1.30;;;1.20;;
4194;SDS011;2111;48.050;11.626;2022-07-30T07:03:03;3.40;;;1.48;;
4194;SDS011;2111;48.050;11.626;2022-07-30T07:05:36;4.30;;;1.92;;
4194;SDS011;2111;48.050;11.626;2022-07-30T07:08:04;2.20;;;1.30;;
4194;SDS011;2111;48.050;11.626;2022-07-30T07:10:31;4.20;;;1.52;;
4194;SDS011;2111;48.050;11.626;2022-07-30T07:12:58;3.60;;;1.60;;
4194;SDS011;2111;48.050;11.626;2022-07-30T07:15:26;2.50;;;1.55;;
4194;SDS011;2111;48.050;11.626;2022-07-30T07:18:02;1.50;;;1.40;;
4194;SDS011;2111;48.050;11.626;2022-07-30T07:20:30;1.90;;;1.45;;
4194;SDS011;2111;48.050;11.626;2022-07-30T07:22:57;2.92;;;1.60;;
4194;SDS011;2111;48.050;11.626;2022-07-30T07:25:24;1.98;;;1.80;;
4194;SDS011;2111;48.050;11.626;2022-07-30T07:27:51;3.03;;;2.10;;
4194;SDS011;2111;48.050;11.626;2022-07-30T07:30:37;1.83;;;1.70;;
4194;SDS011;2111;48.050;11.626;2022-07-30T07:33:04;3.47;;;1.85;;
4194;SDS011;2111;48.050;11.626;2022-07-30T07:35:32;2.05;;;1.67;;
4194;SDS011;2111;48.050;11.626;2022-07-30T07:38:15;1.80;;;1.70;;
4194;SDS011;2111;48.050;11.626;2022-07-30T07:40:42;4.07;;;1.92;;
4194;SDS011;2111;48.050;11.626;2022-07-30T07:43:10;3.13;;;1.80;;
4194;SDS011;2111;48.050;11.626;2022-07-30T07:45:37;4.32;;;2.00;;
4194;SDS011;2111;48.050;11.626;2022-07-30T07:48:04;2.30;;;2.05;;
4194;SDS011;2111;48.050;11.626;2022-07-30T07:50:31;2.30;;;2.20;;
4194;SDS011;2111;48.050;11.626;2022-07-30T07:52:58;3.40;;;1.77;;
4194;SDS011;2111;48.050;11.626;2022-07-30T07:55:25;2.88;;;2.67;;
4194;SDS011;2111;48.050;11.626;2022-07-30T07:57:56;5.38;;;1.77;;
4194;SDS011;2111;48.050;11.626;2022-07-30T08:00:23;2.45;;;2.25;;
4194;SDS011;2111;48.050;11.626;2022-07-30T08:02:50;4.65;;;1.83;;
4194;SDS011;2111;48.050;11.626;2022-07-30T08:05:17;3.45;;;2.10;;
4194;SDS011;2111;48.050;11.626;2022-07-30T08:07:45;4.78;;;2.40;;
4194;SDS011;2111;48.050;11.626;2022-07-30T08:10:12;3.38;;;1.80;;
4194;SDS011;2111;48.050;11.626;2022-07-30T08:12:41;2.50;;;1.90;;
4194;SDS011;2111;48.050;11.626;2022-07-30T08:15:08;3.38;;;1.70;;
4194;SDS011;2111;48.050;11.626;2022-07-30T08:17:38;3.85;;;2.03;;
4194;SDS011;2111;48.050;11.626;2022-07-30T08:20:06;3.17;;;2.38;;
4194;SDS011;2111;48.050;11.626;2022-07-30T08:22:33;5.25;;;1.90;;
4194;SDS011;2111;48.050;11.626;2022-07-30T08:25:00;1.98;;;1.40;;
4194;SDS011;2111;48.050;11.626;2022-07-30T08:27:28;1.85;;;1.58;;
4194;SDS011;2111;48.050;11.626;2022-07-30T08:29:56;2.95;;;1.80;;
4194;SDS011;2111;48.050;11.626;2022-07-30T08:32:23;2.15;;;1.90;;
4194;SDS011;2111;48.050;11.626;2022-07-30T08:34:50;3.67;;;1.75;;
4194;SDS011;2111;48.050;11.626;2022-07-30T08:37:17;4.25;;;2.03;;
4194;SDS011;2111;48.050;11.626;2022-07-30T08:39:44;4.20;;;1.77;;
4194;SDS011;2111;48.050;11.626;2022-07-30T08:42:12;3.20;;;1.95;;
4194;SDS011;2111;48.050;11.626;2022-07-30T08:44:40;1.92;;;1.40;;
4194;SDS011;2111;48.050;11.626;2022-07-30T08:47:09;2.95;;;1.30;;
4194;SDS011;2111;48.050;11.626;2022-07-30T08:49:41;3.58;;;1.25;;
4194;SDS011;2111;48.050;11.626;2022-07-30T08:52:09;3.20;;;1.70;;
4194;SDS011;2111;48.050;11.626;2022-07-30T08:54:36;4.68;;;1.35;;
4194;SDS011;2111;48.050;11.626;2022-07-30T08:57:05;1.73;;;1.30;;
4194;SDS011;2111;48.050;11.626;2022-07-30T08:59:32;2.97;;;1.33;;
4194;SDS011;2111;48.050;11.626;2022-07-30T09:02:19;2.33;;;1.08;;
4194;SDS011;2111;48.050;11.626;2022-07-30T09:04:54;2.20;;;1.10;;
4194;SDS011;2111;48.050;11.626;2022-07-30T09:07:21;1.35;;;1.02;;
4194;SDS011;2111;48.050;11.626;2022-07-30T09:09:48;1.38;;;1.30;;
4194;SDS011;2111;48.050;11.626;2022-07-30T09:12:31;1.40;;;1.20;;
4194;SDS011;2111;48.050;11.626;2022-07-30T09:15:19;4.13;;;1.30;;
4194;SDS011;2111;48.050;11.626;2022-07-30T09:17:59;5.65;;;1.25;;
4194;SDS011;2111;48.050;11.626;2022-07-30T09:20:27;1.40;;;1.30;;
4194;SDS011;2111;48.050;11.626;2022-07-30T09:22:59;1.15;;;1.05;;
4194;SDS011;2111;48.050;11.626;2022-07-30T09:28:05;3.80;;;1.45;;
4194;SDS011;2111;48.050;11.626;2022-07-30T09:30:46;1.20;;;1.10;;
4194;SDS011;2111;48.050;11.626;2022-07-30T09:33:13;2.25;;;0.98;;
4194;SDS011;2111;48.050;11.626;2022-07-30T09:35:41;2.47;;;1.38;;
4194;SDS011;2111;48.050;11.626;2022-07-30T09:38:08;2.65;;;1.27;;
4194;SDS011;2111;48.050;11.626;2022-07-30T09:40:35;2.00;;;0.98;;
4194;SDS011;2111;48.050;11.626;2022-07-30T09:43:08;4.10;;;1.05;;
4194;SDS011;2111;48.050;11.626;2022-07-30T09:45:37;1.15;;;1.02;;
4194;SDS011;2111;48.050;11.626;2022-07-30T09:48:26;2.08;;;1.17;;
4194;SDS011;2111;48.050;11.626;2022-07-30T09:50:53;1.63;;;0.80;;
4194;SDS011;2111;48.050;11.626;2022-07-30T09:53:22;3.53;;;1.00;;
4194;SDS011;2111;48.050;11.626;2022-07-30T09:55:50;1.48;;;1.20;;
4194;SDS011;2111;48.050;11.626;2022-07-30T09:58:16;0.80;;;0.80;;
4194;SDS011;2111;48.050;11.626;2022-07-30T10:00:55;1.40;;;1.02;;
4194;SDS011;2111;48.050;11.626;2022-07-30T10:03:24;2.15;;;1.00;;
4194;SDS011;2111;48.050;11.626;2022-07-30T10:06:03;0.98;;;0.98;;
4194;SDS011;2111;48.050;11.626;2022-07-30T10:08:41;1.05;;;0.95;;
4194;SDS011;2111;48.050;11.626;2022-07-30T10:11:15;1.05;;;0.77;;
4194;SDS011;2111;48.050;11.626;2022-07-30T10:13:49;1.73;;;1.10;;
4194;SDS011;2111;48.050;11.626;2022-07-30T10:16:19;2.10;;;1.05;;
4194;SDS011;2111;48.050;11.626;2022-07-30T10:18:49;1.80;;;0.70;;
4194;SDS011;2111;48.050;11.626;2022-07-30T10:21:16;0.88;;;0.80;;
4194;SDS011;2111;48.050;11.626;2022-07-30T10:23:44;2.25;;;0.82;;
4194;SDS011;2111;48.050;11.626;2022-07-30T10:26:15;0.73;;;0.73;;
4194;SDS011;2111;48.050;11.626;2022-07-30T10:28:43;1.08;;;0.60;;
4194;SDS011;2111;48.050;11.626;2022-07-30T10:31:10;1.50;;;0.70;;
4194;SDS011;2111;48.050;11.626;2022-07-30T10:33:57;0.98;;;0.80;;
4194;SDS011;2111;48.050;11.626;2022-07-30T10:36:24;2.15;;;0.80;;
4194;SDS011;2111;48.050;11.626;2022-07-30T10:38:52;1.02;;;0.93;;
4194;SDS011;2111;48.050;11.626;2022-07-30T10:44:23;0.82;;;0.60;;
4194;SDS011;2111;48.050;11.626;2022-07-30T10:47:10;3.60;;;0.60;;
4194;SDS011;2111;48.050;11.626;2022-07-30T10:49:39;1.75;;;0.70;;
4194;SDS011;2111;48.050;11.626;2022-07-30T10:52:08;3.47;;;1.00;;
4194;SDS011;2111;48.050;11.626;2022-07-30T10:54:39;1.25;;;0.60;;
4194;SDS011;2111;48.050;11.626;2022-07-30T10:57:08;2.25;;;0.90;;
4194;SDS011;2111;48.050;11.626;2022-07-30T11:02:16;4.00;;;0.88;;
4194;SDS011;2111;48.050;11.626;2022-07-30T11:04:45;1.42;;;0.85;;
4194;SDS011;2111;48.050;11.626;2022-07-30T11:09:59;1.02;;;0.82;;
4194;SDS011;2111;48.050;11.626;2022-07-30T11:15:13;0.73;;;0.40;;
4194;SDS011;2111;48.050;11.626;2022-07-30T11:18:01;1.02;;;0.70;;
4194;SDS011;2111;48.050;11.626;2022-07-30T11:20:39;1.08;;;0.68;;
4194;SDS011;2111;48.050;11.626;2022-07-30T11:23:10;1.08;;;0.70;;
4194;SDS011;2111;48.050;11.626;2022-07-30T11:25:45;1.02;;;0.75;;
4194;SDS011;2111;48.050;11.626;2022-07-30T11:31:03;0.77;;;0.60;;
4194;SDS011;2111;48.050;11.626;2022-07-30T11:33:35;0.60;;;0.60;;
4194;SDS011;2111;48.050;11.626;2022-07-30T11:36:05;2.10;;;1.20;;
4194;SDS011;2111;48.050;11.626;2022-07-30T11:38:54;1.23;;;0.50;;
4194;SDS011;2111;48.050;11.626;2022-07-30T11:41:32;1.73;;;0.80;;
4194;SDS011;2111;48.050;11.626;2022-07-30T11:46:48;1.33;;;0.82;;
4194;SDS011;2111;48.050;11.626;2022-07-30T11:49:17;0.75;;;0.60;;
4194;SDS011;2111;48.050;11.626;2022-07-30T11:51:44;1.33;;;0.80;;
4194;SDS011;2111;48.050;11.626;2022-07-30T11:54:12;1.63;;;0.73;;
4194;SDS011;2111;48.050;11.626;2022-07-30T11:56:52;1.05;;;1.05;;
4194;SDS011;2111;48.050;11.626;2022-07-30T11:59:20;2.65;;;0.80;;
4194;SDS011;2111;48.050;11.626;2022-07-30T12:01:53;0.70;;;0.70;;
4194;SDS011;2111;48.050;11.626;2022-07-30T12:04:25;2.75;;;0.90;;
4194;SDS011;2111;48.050;11.626;2022-07-30T12:06:52;0.95;;;0.80;;
4194;SDS011;2111;48.050;11.626;2022-07-30T12:09:23;0.73;;;0.65;;
4194;SDS011;2111;48.050;11.626;2022-07-30T12:11:53;2.45;;;0.98;;
4194;SDS011;2111;48.050;11.626;2022-07-30T12:14:21;2.85;;;0.75;;
4194;SDS011;2111;48.050;11.626;2022-07-30T12:16:49;2.05;;;0.80;;
4194;SDS011;2111;48.050;11.626;2022-07-30T12:19:16;3.42;;;1.05;;
4194;SDS011;2111;48.050;11.626;2022-07-30T12:21:43;1.48;;;0.90;;
4194;SDS011;2111;48.050;11.626;2022-07-30T12:24:17;1.23;;;0.80;;
4194;SDS011;2111;48.050;11.626;2022-07-30T12:26:49;1.58;;;0.95;;
4194;SDS011;2111;48.050;11.626;2022-07-30T12:29:16;1.92;;;0.93;;
4194;SDS011;2111;48.050;11.626;2022-07-30T12:31:43;1.88;;;0.80;;
4194;SDS011;2111;48.050;11.626;2022-07-30T12:34:29;0.98;;;0.85;;
4194;SDS011;2111;48.050;11.626;2022-07-30T12:37:05;2.75;;;0.93;;
4194;SDS011;2111;48.050;11.626;2022-07-30T12:39:33;0.90;;;0.90;;
4194;SDS011;2111;48.050;11.626;2022-07-30T12:42:00;2.47;;;1.00;;
4194;SDS011;2111;48.050;11.626;2022-07-30T12:44:38;3.15;;;0.88;;
4194;SDS011;2111;48.050;11.626;2022-07-30T12:47:17;3.50;;;0.82;;
4194;SDS011;2111;48.050;11.626;2022-07-30T12:49:45;0.73;;;0.73;;
4194;SDS011;2111;48.050;11.626;2022-07-30T12:52:19;1.50;;;0.70;;
4194;SDS011;2111;48.050;11.626;2022-07-30T13:00:45;1.00;;;0.60;;
4194;SDS011;2111;48.050;11.626;2022-07-30T13:03:23;0.60;;;0.60;;
4194;SDS011;2111;48.050;11.626;2022-07-30T13:05:55;0.93;;;0.93;;
4194;SDS011;2111;48.050;11.626;2022-07-30T13:11:14;4.72;;;0.77;;
4194;SDS011;2111;48.050;11.626;2022-07-30T13:13:42;0.65;;;0.55;;
4194;SDS011;2111;48.050;11.626;2022-07-30T13:16:09;0.73;;;0.73;;
4194;SDS011;2111;48.050;11.626;2022-07-30T13:18:37;3.00;;;0.73;;
4194;SDS011;2111;48.050;11.626;2022-07-30T13:21:04;1.98;;;0.70;;
4194;SDS011;2111;48.050;11.626;2022-07-30T13:23:34;0.90;;;0.40;;
4194;SDS011;2111;48.050;11.626;2022-07-30T13:26:02;0.65;;;0.57;;
4194;SDS011;2111;48.050;11.626;2022-07-30T13:28:29;0.98;;;0.60;;
4194;SDS011;2111;48.050;11.626;2022-07-30T13:30:57;0.70;;;0.70;;
4194;SDS011;2111;48.050;11.626;2022-07-30T13:33:24;0.50;;;0.50;;
4194;SDS011;2111;48.050;11.626;2022-07-30T13:35:52;0.75;;;0.68;;
4194;SDS011;2111;48.050;11.626;2022-07-30T13:38:19;1.15;;;0.70;;
4194;SDS011;2111;48.050;11.626;2022-07-30T13:40:46;1.13;;;0.80;;
4194;SDS011;2111;48.050;11.626;2022-07-30T13:43:13;0.93;;;0.70;;
4194;SDS011;2111;48.050;11.626;2022-07-30T13:45:40;1.02;;;0.70;;
4194;SDS011;2111;48.050;11.626;2022-07-30T13:48:07;1.45;;;0.70;;
4194;SDS011;2111;48.050;11.626;2022-07-30T13:50:34;1.83;;;0.60;;
4194;SDS011;2111;48.050;11.626;2022-07-30T13:53:01;3.40;;;0.80;;
4194;SDS011;2111;48.050;11.626;2022-07-30T13:55:28;0.50;;;0.50;;
4194;SDS011;2111;48.050;11.626;2022-07-30T13:57:57;0.70;;;0.60;;
4194;SDS011;2111;48.050;11.626;2022-07-30T14:00:25;1.70;;;0.70;;
4194;SDS011;2111;48.050;11.626;2022-07-30T14:02:58;1.33;;;0.60;;
4194;SDS011;2111;48.050;11.626;2022-07-30T14:05:25;2.05;;;0.80;;
4194;SDS011;2111;48.050;11.626;2022-07-30T14:07:53;0.80;;;0.68;;
4194;SDS011;2111;48.050;11.626;2022-07-30T14:10:20;0.70;;;0.70;;
4194;SDS011;2111;48.050;11.626;2022-07-30T14:12:48;1.30;;;0.65;;
4194;SDS011;2111;48.050;11.626;2022-07-30T14:15:15;0.80;;;0.70;;
4194;SDS011;2111;48.050;11.626;2022-07-30T14:17:43;0.60;;;0.60;;
4194;SDS011;2111;48.050;11.626;2022-07-30T14:20:21;2.20;;;0.85;;
4194;SDS011;2111;48.050;11.626;2022-07-30T14:22:49;0.70;;;0.70;;
4194;SDS011;2111;48.050;11.626;2022-07-30T14:25:15;1.13;;;0.70;;
4194;SDS011;2111;48.050;11.626;2022-07-30T14:27:42;0.60;;;0.60;;
4194;SDS011;2111;48.050;11.626;2022-07-30T14:30:13;0.63;;;0.57;;
4194;SDS011;2111;48.050;11.626;2022-07-30T14:32:40;0.73;;;0.73;;
4194;SDS011;2111;48.050;11.626;2022-07-30T14:35:08;3.80;;;0.77;;
4194;SDS011;2111;48.050;11.626;2022-07-30T14:37:36;1.15;;;0.40;;
4194;SDS011;2111;48.050;11.626;2022-07-30T14:40:07;1.23;;;0.70;;
4194;SDS011;2111;48.050;11.626;2022-07-30T14:42:36;1.17;;;0.60;;
4194;SDS011;2111;48.050;11.626;2022-07-30T14:45:05;0.98;;;0.50;;
4194;SDS011;2111;48.050;11.626;2022-07-30T14:47:33;2.70;;;0.65;;
4194;SDS011;2111;48.050;11.626;2022-07-30T14:50:00;4.60;;;0.88;;
4194;SDS011;2111;48.050;11.626;2022-07-30T14:52:27;0.63;;;0.60;;
4194;SDS011;2111;48.050;11.626;2022-07-30T14:54:54;0.70;;;0.70;;
4194;SDS011;2111;48.050;11.626;2022-07-30T14:57:20;0.80;;;0.70;;
4194;SDS011;2111;48.050;11.626;2022-07-30T14:59:47;0.57;;;0.50;;
4194;SDS011;2111;48.050;11.626;2022-07-30T15:02:15;0.60;;;0.60;;
4194;SDS011;2111;48.050;11.626;2022-07-30T15:04:42;1.58;;;0.70;;
4194;SDS011;2111;48.050;11.626;2022-07-30T15:07:09;0.55;;;0.55;;
4194;SDS011;2111;48.050;11.626;2022-07-30T15:09:38;0.50;;;0.50;;
4194;SDS011;2111;48.050;11.626;2022-07-30T15:12:05;2.40;;;0.90;;
4194;SDS011;2111;48.050;11.626;2022-07-30T15:14:36;0.40;;;0.40;;
4194;SDS011;2111;48.050;11.626;2022-07-30T15:17:04;0.82;;;0.60;;
4194;SDS011;2111;48.050;11.626;2022-07-30T15:19:32;1.13;;;0.60;;
4194;SDS011;2111;48.050;11.626;2022-07-30T15:21:59;0.90;;;0.70;;
4194;SDS011;2111;48.050;11.626;2022-07-30T15:24:27;2.15;;;0.60;;
4194;SDS011;2111;48.050;11.626;2022-07-30T15:26:55;1.80;;;0.70;;
4194;SDS011;2111;48.050;11.626;2022-07-30T15:29:21;1.10;;;0.50;;
4194;SDS011;2111;48.050;11.626;2022-07-30T15:31:49;2.15;;;0.57;;
4194;SDS011;2111;48.050;11.626;2022-07-30T15:34:16;0.90;;;0.47;;
4194;SDS011;2111;48.050;11.626;2022-07-30T15:36:43;0.50;;;0.40;;
4194;SDS011;2111;48.050;11.626;2022-07-30T15:39:10;0.68;;;0.68;;
4194;SDS011;2111;48.050;11.626;2022-07-30T15:41:40;1.90;;;0.55;;
4194;SDS011;2111;48.050;11.626;2022-07-30T15:44:07;0.40;;;0.40;;
4194;SDS011;2111;48.050;11.626;2022-07-30T15:46:34;1.65;;;0.40;;